KPTV

Porterville Municipal Airport

Porterville, California, USA
METAR KPTV 161756Z AUTO 10005KT 10SM CLR 16/08 A3009 RMK AO2 SLP203 T01610078 10161 20061 53002
Observed Flight Rules
Jan-16 @ 17:56 UTC (28 minutes ago) Visual Flight Rules
Wind Visibility Clouds
100° at 5 knots 10 miles
  • Clear skies
Temperatures Readings
Current 16°C / 61°F
Dewpoint 8°C / 46°F
Humidity 59%
Altimeter 30.09" Hg
Pressure 1020.3 hPa
Elevation 135
METAR KPTV 161756Z AUTO 10005KT 10SM CLR 16/08 A3009 RMK AO2 SLP203 T01610078 10161 20061 53002
Observed Flight Rules
Jan-16 @ 17:56 UTC
(28 minutes ago)
VFR
Wind Visibility
100° at 5 knots 10 miles
Clouds
  • Clear skies
Temperature Dewpoint
16°C / 61°F 8°C / 46°F
Humidity Altimeter Pressure
59% 30.09" Hg 1020.3 hPa